createdAt,value
2018-03-24T00:00:30.589Z,36.4
2018-03-24T00:01:21.187Z,36.4
2018-03-24T00:02:10.907Z,36.4
2018-03-24T00:03:00.678Z,36.4
2018-03-24T00:03:51.710Z,36.4
2018-03-24T00:04:42.116Z,36.4
2018-03-24T00:05:32.139Z,36.4
2018-03-24T00:06:22.159Z,36.4
2018-03-24T00:07:12.426Z,36.4
2018-03-24T00:08:02.817Z,36.4
2018-03-24T00:08:52.562Z,36.5
2018-03-24T00:09:42.575Z,36.6
2018-03-24T00:10:32.648Z,36.6
2018-03-24T00:11:23.000Z,36.6
2018-03-24T00:12:12.786Z,36.6
2018-03-24T00:13:02.576Z,36.6
2018-03-24T00:13:52.601Z,36.5
2018-03-24T00:14:43.573Z,36.5
2018-03-24T00:15:32.088Z,36.5
2018-03-24T00:16:23.071Z,36.4
2018-03-24T00:17:12.300Z,36.5
2018-03-24T00:18:01.976Z,36.5
2018-03-24T00:18:51.495Z,36.6
2018-03-24T00:19:42.069Z,36.6
2018-03-24T00:20:32.247Z,36.6
2018-03-24T00:21:22.450Z,36.8
2018-03-24T00:22:12.341Z,36.8
2018-03-24T00:23:03.034Z,36.9
2018-03-24T00:23:53.196Z,37
2018-03-24T00:24:42.675Z,37.1
2018-03-24T00:25:32.435Z,37.2
2018-03-24T00:26:21.866Z,37.3
2018-03-24T00:27:13.870Z,37.3
2018-03-24T00:28:03.221Z,37.4
2018-03-24T00:28:53.512Z,37.4
2018-03-24T00:29:43.393Z,37.4
2018-03-24T00:30:33.156Z,37.4
2018-03-24T00:31:22.605Z,37.4
2018-03-24T00:32:12.878Z,37.4
2018-03-24T00:33:02.985Z,37.4
2018-03-24T00:33:52.680Z,37.4
2018-03-24T00:34:43.852Z,37.4
2018-03-24T00:35:32.828Z,37.3
2018-03-24T00:36:23.418Z,37.3
2018-03-24T00:37:13.318Z,37.3
2018-03-24T00:38:03.820Z,37.3
2018-03-24T00:38:53.823Z,37.3
2018-03-24T00:39:43.940Z,37.3
2018-03-24T00:40:32.923Z,37.3
2018-03-24T00:41:23.962Z,37.3
2018-03-24T00:42:14.037Z,37.2
2018-03-24T00:43:04.272Z,37.1
2018-03-24T00:43:53.666Z,37.1
2018-03-24T00:44:43.195Z,37.1
2018-03-24T00:45:33.909Z,37.1
2018-03-24T00:46:24.684Z,37.1
2018-03-24T00:47:13.935Z,37.1
2018-03-24T00:48:04.544Z,37
2018-03-24T00:48:54.549Z,37
2018-03-24T00:49:44.039Z,37
2018-03-24T00:50:34.648Z,37
2018-03-24T00:51:23.514Z,36.9
2018-03-24T00:52:13.444Z,37
2018-03-24T00:53:04.756Z,37
2018-03-24T00:53:55.371Z,37
2018-03-24T00:54:45.105Z,36.9
2018-03-24T00:55:34.419Z,36.9
2018-03-24T00:56:24.591Z,36.9
2018-03-24T00:57:14.142Z,36.9
2018-03-24T00:58:04.087Z,36.9
2018-03-24T00:58:55.858Z,36.9
2018-03-24T00:59:45.792Z,36.9
2018-03-24T01:00:34.698Z,36.9
2018-03-24T01:01:24.242Z,36.9
2018-03-24T01:02:13.660Z,36.9
2018-03-24T01:03:06.360Z,36.9
2018-03-24T01:03:55.832Z,37
2018-03-24T01:04:45.690Z,37.1
2018-03-24T01:05:35.133Z,37.1
2018-03-24T01:06:25.985Z,37.1
2018-03-24T01:07:15.080Z,37.1
2018-03-24T01:08:04.563Z,37.1
2018-03-24T01:08:56.286Z,37.1
2018-03-24T01:09:45.836Z,37.1
2018-03-24T01:10:35.068Z,37.1
2018-03-24T01:11:24.783Z,37.1
2018-03-24T01:12:14.803Z,37.1
2018-03-24T01:13:05.807Z,37.1
2018-03-24T01:13:55.390Z,37.1
2018-03-24T01:14:45.121Z,37.2
2018-03-24T01:15:36.090Z,37.2
2018-03-24T01:16:25.857Z,37.2
2018-03-24T01:17:15.753Z,37.2
2018-03-24T01:18:06.515Z,37.2
2018-03-24T01:18:55.597Z,37.1
2018-03-24T01:19:46.209Z,37.2
2018-03-24T01:20:37.715Z,37.2
2018-03-24T01:21:27.838Z,37.1
2018-03-24T01:22:17.830Z,37.1
2018-03-24T01:23:07.029Z,37.1
2018-03-24T01:23:57.955Z,37.1
2018-03-24T01:24:47.742Z,37.1
2018-03-24T01:25:37.774Z,37.1
2018-03-24T01:26:28.139Z,37.1
2018-03-24T01:27:17.360Z,37.3
2018-03-24T01:28:08.226Z,37.3
2018-03-24T01:28:58.315Z,37.4
2018-03-24T01:29:47.797Z,37.6
2018-03-24T01:30:37.821Z,37.6
2018-03-24T01:31:28.482Z,37.8
2018-03-24T01:32:18.593Z,37.9
2018-03-24T01:33:08.036Z,37.9
2018-03-24T01:33:58.361Z,38.1
2018-03-24T01:34:48.996Z,38.1
2018-03-24T01:35:38.794Z,38.1
2018-03-24T01:36:28.603Z,38.1
2018-03-24T01:37:18.579Z,38.1
2018-03-24T01:38:08.333Z,38
2018-03-24T01:38:57.880Z,37.9
2018-03-24T01:39:48.126Z,37.9
2018-03-24T01:40:37.784Z,37.8
2018-03-24T01:41:27.358Z,37.8
2018-03-24T01:42:18.121Z,37.8
2018-03-24T01:43:07.319Z,37.7
2018-03-24T01:43:57.717Z,37.6
2018-03-24T01:44:48.073Z,37.7
2018-03-24T01:45:38.736Z,37.6
2018-03-24T01:46:28.712Z,37.6
2018-03-24T01:47:18.829Z,37.6
2018-03-24T01:48:08.639Z,37.6
2018-03-24T01:48:58.533Z,37.6
2018-03-24T01:49:48.486Z,37.6
2018-03-24T01:50:38.136Z,37.6
2018-03-24T01:51:28.546Z,37.6
2018-03-24T01:52:18.390Z,37.6
2018-03-24T01:53:09.069Z,37.6
2018-03-24T01:53:58.282Z,37.6
2018-03-24T01:54:47.511Z,37.6
2018-03-24T01:55:38.446Z,37.6
2018-03-24T01:56:28.455Z,37.6
2018-03-24T01:57:17.563Z,37.6
2018-03-24T01:58:08.698Z,37.6
2018-03-24T01:58:58.360Z,37.6
2018-03-24T01:59:48.800Z,37.6
2018-03-24T02:00:38.183Z,37.6
2018-03-24T02:01:28.858Z,37.6
2018-03-24T02:02:19.468Z,37.6
2018-03-24T02:03:09.227Z,37.6
2018-03-24T02:03:58.753Z,37.6
2018-03-24T02:04:49.358Z,37.6
2018-03-24T02:05:39.396Z,37.6
2018-03-24T02:06:29.427Z,37.6
2018-03-24T02:07:19.635Z,37.7
2018-03-24T02:08:10.027Z,37.7
2018-03-24T02:08:59.530Z,37.7
2018-03-24T02:09:49.292Z,37.7
2018-03-24T02:10:40.068Z,37.7
2018-03-24T02:11:29.745Z,37.7
2018-03-24T02:12:19.828Z,37.7
2018-03-24T02:13:09.233Z,37.7
2018-03-24T02:14:00.285Z,37.7
2018-03-24T02:14:49.257Z,37.7
2018-03-24T02:15:39.993Z,37.7
2018-03-24T02:16:30.762Z,37.6
2018-03-24T02:17:20.197Z,37.6
2018-03-24T02:18:10.569Z,37.6
2018-03-24T02:18:59.909Z,37.6
2018-03-24T02:19:49.919Z,37.7
2018-03-24T02:20:40.059Z,37.7
2018-03-24T02:21:30.272Z,37.7
2018-03-24T02:22:19.776Z,37.7
2018-03-24T02:23:11.749Z,37.7
2018-03-24T02:24:01.770Z,37.7
2018-03-24T02:24:51.871Z,37.7
2018-03-24T02:25:41.599Z,37.7
2018-03-24T02:26:32.558Z,37.7
2018-03-24T02:27:22.548Z,37.8
2018-03-24T02:28:12.060Z,37.8
2018-03-24T02:29:01.822Z,37.8
2018-03-24T02:29:51.885Z,37.8
2018-03-24T02:30:40.852Z,37.8
2018-03-24T02:31:30.975Z,37.7
2018-03-24T02:32:21.239Z,37.7
2018-03-24T02:33:11.109Z,37.8
2018-03-24T02:34:00.171Z,37.8
2018-03-24T02:34:52.016Z,37.8
2018-03-24T02:35:41.681Z,37.8
2018-03-24T02:36:30.846Z,37.8
2018-03-24T02:37:21.593Z,37.8
2018-03-24T02:38:11.214Z,37.8
2018-03-24T02:39:02.441Z,37.8
2018-03-24T02:39:50.389Z,37.8
2018-03-24T02:40:41.925Z,37.8
2018-03-24T02:41:31.863Z,37.8
2018-03-24T02:42:22.579Z,37.7
2018-03-24T02:43:11.982Z,37.8
2018-03-24T02:44:02.233Z,37.7
2018-03-24T02:44:51.930Z,37.7
2018-03-24T02:45:42.803Z,37.7
2018-03-24T02:46:32.072Z,37.6
2018-03-24T02:47:22.101Z,37.6
2018-03-24T02:48:12.564Z,37.7
2018-03-24T02:49:02.078Z,37.6
2018-03-24T02:49:51.529Z,37.6
2018-03-24T02:50:42.882Z,37.6
2018-03-24T02:51:32.738Z,37.7
2018-03-24T02:52:22.494Z,37.7
2018-03-24T02:53:12.573Z,37.8
2018-03-24T02:54:03.086Z,37.8
2018-03-24T02:54:52.892Z,37.8
2018-03-24T02:55:42.660Z,37.8
2018-03-24T02:56:33.787Z,37.8
2018-03-24T02:57:21.942Z,37.8
2018-03-24T02:58:13.345Z,37.8
2018-03-24T02:59:03.797Z,37.9
2018-03-24T02:59:53.615Z,37.8
2018-03-24T03:00:43.747Z,37.9
2018-03-24T03:01:32.533Z,37.9
2018-03-24T03:02:23.918Z,37.9
2018-03-24T03:03:13.453Z,37.9
2018-03-24T03:04:04.125Z,37.9
2018-03-24T03:04:54.090Z,37.9
2018-03-24T03:05:44.751Z,37.9
2018-03-24T03:06:34.774Z,37.9
2018-03-24T03:07:24.585Z,37.9
2018-03-24T03:08:14.602Z,37.9
2018-03-24T03:09:04.991Z,37.9
2018-03-24T03:09:54.741Z,37.9
2018-03-24T03:10:45.036Z,37.9
2018-03-24T03:11:34.567Z,38
2018-03-24T03:12:24.888Z,37.9
2018-03-24T03:13:14.994Z,38
2018-03-24T03:14:04.711Z,38
2018-03-24T03:14:55.353Z,38
2018-03-24T03:15:44.577Z,38
2018-03-24T03:16:35.400Z,38
2018-03-24T03:17:25.246Z,38
2018-03-24T03:18:15.546Z,38
2018-03-24T03:19:05.015Z,38
2018-03-24T03:19:53.566Z,38
2018-03-24T03:20:44.412Z,37.9
2018-03-24T03:21:34.370Z,37.9
2018-03-24T03:22:23.838Z,37.9
2018-03-24T03:23:14.618Z,37.9
2018-03-24T03:24:05.605Z,37.9
2018-03-24T03:24:54.492Z,37.9
2018-03-24T03:25:45.600Z,37.9
2018-03-24T03:26:34.680Z,37.9
2018-03-24T03:27:24.570Z,38
2018-03-24T03:28:14.946Z,37.9
2018-03-24T03:29:04.019Z,37.9
2018-03-24T03:29:55.047Z,38
2018-03-24T03:30:44.569Z,38
2018-03-24T03:31:35.955Z,38
2018-03-24T03:32:24.729Z,37.9
2018-03-24T03:33:15.213Z,37.9
2018-03-24T03:34:05.622Z,38
2018-03-24T03:34:55.101Z,38
2018-03-24T03:35:44.644Z,38
2018-03-24T03:36:35.712Z,38.1
2018-03-24T03:37:25.553Z,38.1
2018-03-24T03:38:15.712Z,38.1
2018-03-24T03:39:05.569Z,38.1
2018-03-24T03:39:55.437Z,38.1
2018-03-24T03:40:46.095Z,38.1
2018-03-24T03:41:36.595Z,38.1
2018-03-24T03:42:25.754Z,38.1
2018-03-24T03:43:14.696Z,38.1
2018-03-24T03:44:04.922Z,38.1
2018-03-24T03:44:56.847Z,38.1
2018-03-24T03:45:46.489Z,38.2
2018-03-24T03:46:36.487Z,38.2
2018-03-24T03:47:27.584Z,38.3
2018-03-24T03:48:16.760Z,38.3
2018-03-24T03:49:06.282Z,38.3
2018-03-24T03:49:56.834Z,38.3
2018-03-24T03:50:46.959Z,38.3
2018-03-24T03:51:36.184Z,38.2
2018-03-24T03:52:26.092Z,38.3
2018-03-24T03:53:17.538Z,38.3
2018-03-24T03:54:07.101Z,38.3
2018-03-24T03:54:56.693Z,38.3
2018-03-24T03:55:46.048Z,38.3
2018-03-24T03:56:36.721Z,38.3
2018-03-24T03:57:27.434Z,38.2
2018-03-24T03:58:17.504Z,38.3
2018-03-24T03:59:07.248Z,38.3
2018-03-24T03:59:56.923Z,38.3
2018-03-24T04:00:46.964Z,38.3
2018-03-24T04:01:38.237Z,38.3
2018-03-24T04:02:26.812Z,38.4
2018-03-24T04:03:17.360Z,38.4
2018-03-24T04:04:07.676Z,38.4
2018-03-24T04:04:57.372Z,38.4
2018-03-24T04:05:46.710Z,38.4
2018-03-24T04:06:37.911Z,38.4
2018-03-24T04:07:27.314Z,38.4
2018-03-24T04:08:17.421Z,38.4
2018-03-24T04:09:08.238Z,38.4
2018-03-24T04:09:57.568Z,38.4
2018-03-24T04:10:48.718Z,38.4
2018-03-24T04:11:38.204Z,38.4
2018-03-24T04:12:27.989Z,38.4
2018-03-24T04:13:18.669Z,38.4
2018-03-24T04:14:07.174Z,38.3
2018-03-24T04:14:57.328Z,38.3
2018-03-24T04:15:48.389Z,38.3
2018-03-24T04:16:38.358Z,38.3
2018-03-24T04:17:28.578Z,38.3
2018-03-24T04:18:17.964Z,38.3
2018-03-24T04:19:08.797Z,38.4
2018-03-24T04:19:58.082Z,38.3
2018-03-24T04:20:47.737Z,38.3
2018-03-24T04:21:38.764Z,38.4
2018-03-24T04:22:28.734Z,38.3
2018-03-24T04:23:19.469Z,38.3
2018-03-24T04:24:08.171Z,38.3
2018-03-24T04:24:59.542Z,38.4
2018-03-24T04:25:48.994Z,38.3
2018-03-24T04:26:39.390Z,38.4
2018-03-24T04:27:28.405Z,38.4
2018-03-24T04:28:18.836Z,38.4
2018-03-24T04:29:09.681Z,38.4
2018-03-24T04:29:59.259Z,38.4
2018-03-24T04:30:48.683Z,38.4
2018-03-24T04:31:39.978Z,38.4
2018-03-24T04:32:29.752Z,38.4
2018-03-24T04:33:19.896Z,38.4
2018-03-24T04:34:09.947Z,38.4
2018-03-24T04:34:59.307Z,38.4
2018-03-24T04:35:49.124Z,38.5
2018-03-24T04:36:39.712Z,38.5
2018-03-24T04:37:29.766Z,38.5
2018-03-24T04:38:20.960Z,38.5
2018-03-24T04:39:10.706Z,38.6
2018-03-24T04:40:01.078Z,38.6
2018-03-24T04:40:51.385Z,38.6
2018-03-24T04:41:41.720Z,38.6
2018-03-24T04:42:31.247Z,38.6
2018-03-24T04:43:21.888Z,38.6
2018-03-24T04:44:11.906Z,38.6
2018-03-24T04:45:01.981Z,38.6
2018-03-24T04:45:51.428Z,38.6
2018-03-24T04:46:42.042Z,38.6
2018-03-24T04:47:31.628Z,38.6
2018-03-24T04:48:22.217Z,38.6
2018-03-24T04:49:11.709Z,38.6
2018-03-24T04:50:01.726Z,38.6
2018-03-24T04:50:52.337Z,38.6
2018-03-24T04:51:42.472Z,38.6
2018-03-24T04:52:32.193Z,38.6
2018-03-24T04:53:22.552Z,38.6
2018-03-24T04:54:12.313Z,38.6
2018-03-24T04:55:02.360Z,38.6
2018-03-24T04:55:52.207Z,38.5
2018-03-24T04:56:41.605Z,38.5
2018-03-24T04:57:32.520Z,38.4
2018-03-24T04:58:22.303Z,38.4
2018-03-24T04:59:12.105Z,38.4
2018-03-24T05:00:02.720Z,38.4
2018-03-24T05:00:52.347Z,38.4
2018-03-24T05:01:42.022Z,38.4
2018-03-24T05:02:32.606Z,38.4
2018-03-24T05:03:22.958Z,38.4
2018-03-24T05:04:12.183Z,38.4
2018-03-24T05:05:03.088Z,38.4
2018-03-24T05:05:52.584Z,38.4
2018-03-24T05:06:42.663Z,38.4
2018-03-24T05:07:32.975Z,38.4
2018-03-24T05:08:22.727Z,38.4
2018-03-24T05:09:13.335Z,38.4
2018-03-24T05:10:03.132Z,38.3
2018-03-24T05:10:52.342Z,38.4
2018-03-24T05:11:43.754Z,38.4
2018-03-24T05:12:32.812Z,38.4
2018-03-24T05:13:22.846Z,38.4
2018-03-24T05:14:13.379Z,38.4
2018-03-24T05:15:02.951Z,38.4
2018-03-24T05:15:52.452Z,38.4
2018-03-24T05:16:43.009Z,38.4
2018-03-24T05:17:32.928Z,38.4
2018-03-24T05:18:23.186Z,38.4
2018-03-24T05:19:12.687Z,38.3
2018-03-24T05:20:03.274Z,38.3
2018-03-24T05:20:53.385Z,38.3
2018-03-24T05:21:43.726Z,38.4
2018-03-24T05:22:33.772Z,38.4
2018-03-24T05:23:23.243Z,38.4
2018-03-24T05:24:13.891Z,38.4
2018-03-24T05:25:03.669Z,38.4
2018-03-24T05:25:53.878Z,38.4
2018-03-24T05:26:43.973Z,38.4
2018-03-24T05:27:33.534Z,38.5
2018-03-24T05:28:24.167Z,38.4
2018-03-24T05:29:13.432Z,38.4
2018-03-24T05:30:04.311Z,38.3
2018-03-24T05:30:54.808Z,38.3
2018-03-24T05:31:44.334Z,38.3
2018-03-24T05:32:34.354Z,38.3
2018-03-24T05:33:24.732Z,38.2
2018-03-24T05:34:14.471Z,38.2
2018-03-24T05:35:04.553Z,38.2
2018-03-24T05:35:54.903Z,38.2
2018-03-24T05:36:44.666Z,38.2
2018-03-24T05:37:35.295Z,38.1
2018-03-24T05:38:24.556Z,38.2
2018-03-24T05:39:15.516Z,38.2
2018-03-24T05:40:05.182Z,38.2
2018-03-24T05:40:54.892Z,38.2
2018-03-24T05:41:45.263Z,38.3
2018-03-24T05:42:34.583Z,38.3
2018-03-24T05:43:24.552Z,38.3
2018-03-24T05:44:15.505Z,38.3
2018-03-24T05:45:05.848Z,38.3
2018-03-24T05:45:54.664Z,38.3
2018-03-24T05:46:45.055Z,38.3
2018-03-24T05:47:35.662Z,38.4
2018-03-24T05:48:25.808Z,38.4
2018-03-24T05:49:15.805Z,38.4
2018-03-24T05:50:05.279Z,38.4
2018-03-24T05:50:55.894Z,38.4
2018-03-24T05:51:45.684Z,38.4
2018-03-24T05:52:35.487Z,38.4
2018-03-24T05:53:25.794Z,38.4
2018-03-24T05:54:16.131Z,38.4
2018-03-24T05:55:06.502Z,38.5
2018-03-24T05:55:55.517Z,38.5
2018-03-24T05:56:45.348Z,38.5
2018-03-24T05:57:36.633Z,38.5
2018-03-24T05:58:26.397Z,38.5
2018-03-24T05:59:16.997Z,38.4
2018-03-24T06:00:06.842Z,38.4
2018-03-24T06:00:56.847Z,38.3
2018-03-24T06:01:47.189Z,38.3
2018-03-24T06:02:37.289Z,38.2
2018-03-24T06:03:26.839Z,38.1
2018-03-24T06:04:17.100Z,38.1
2018-03-24T06:05:07.141Z,37.9
2018-03-24T06:05:56.606Z,37.8
2018-03-24T06:06:47.528Z,37.8
2018-03-24T06:07:37.016Z,37.6
2018-03-24T06:08:27.375Z,37.4
2018-03-24T06:09:17.391Z,37.4
2018-03-24T06:10:07.225Z,37.2
2018-03-24T06:10:57.231Z,37.1
2018-03-24T06:11:47.651Z,37
2018-03-24T06:12:37.677Z,36.8
2018-03-24T06:13:27.705Z,36.5
2018-03-24T06:14:17.778Z,36.3
2018-03-24T06:15:07.820Z,36.1
2018-03-24T06:15:57.916Z,35.9
2018-03-24T06:16:47.317Z,35.7
2018-03-24T06:17:37.970Z,35.4
2018-03-24T06:18:28.339Z,35.3
2018-03-24T06:19:18.395Z,35
2018-03-24T06:20:07.851Z,34.8
2018-03-24T06:20:58.466Z,34.6
2018-03-24T06:21:48.094Z,34.3
2018-03-24T06:22:37.779Z,34
2018-03-24T06:23:28.638Z,33.7
2018-03-24T06:24:18.181Z,33.3
2018-03-24T06:25:08.821Z,32.8
2018-03-24T06:25:58.639Z,32.4
2018-03-24T06:26:48.626Z,32.1
2018-03-24T06:27:39.046Z,31.8
2018-03-24T06:28:29.020Z,31.6
2018-03-24T06:29:19.088Z,31.3
2018-03-24T06:30:08.826Z,31.1
2018-03-24T06:30:59.167Z,30.9
2018-03-24T06:31:48.976Z,30.8
2018-03-24T06:32:38.728Z,30.7
2018-03-24T06:33:29.356Z,30.6
2018-03-24T06:34:18.648Z,30.5
2018-03-24T06:35:08.934Z,30.4
2018-03-24T06:35:59.000Z,30.3
2018-03-24T06:36:49.305Z,30.2
2018-03-24T06:37:39.589Z,30.1
2018-03-24T06:38:29.491Z,30
2018-03-24T06:39:18.626Z,29.9
2018-03-24T06:40:09.533Z,29.8
2018-03-24T06:40:59.795Z,29.8
2018-03-24T06:41:49.623Z,29.7
2018-03-24T06:42:39.517Z,29.6
2018-03-24T06:43:29.740Z,29.6
2018-03-24T06:44:19.356Z,29.5
2018-03-24T06:45:09.891Z,29.4
2018-03-24T06:45:59.940Z,29.4
2018-03-24T06:46:49.248Z,29.4
2018-03-24T06:47:40.068Z,29.4
2018-03-24T06:48:30.122Z,29.3
2018-03-24T06:49:20.220Z,29.3
2018-03-24T06:50:10.497Z,29.3
2018-03-24T06:51:00.051Z,29.2
2018-03-24T06:51:49.749Z,29.2
2018-03-24T06:52:40.107Z,29.1
2018-03-24T06:53:30.433Z,29.1
2018-03-24T06:54:20.057Z,29.1
2018-03-24T06:55:10.296Z,29
2018-03-24T06:56:00.605Z,28.9
2018-03-24T06:56:50.372Z,28.9
2018-03-24T06:57:40.157Z,28.9
2018-03-24T06:58:30.745Z,28.9
2018-03-24T06:59:20.902Z,28.9
2018-03-24T07:00:11.187Z,28.8
2018-03-24T07:01:00.784Z,28.8
2018-03-24T07:01:50.770Z,28.8
2018-03-24T07:02:41.014Z,28.8
2018-03-24T07:03:30.551Z,28.7
2018-03-24T07:04:21.219Z,28.7
2018-03-24T07:05:11.202Z,28.7
2018-03-24T07:06:00.996Z,28.6
2018-03-24T07:06:51.356Z,28.6
2018-03-24T07:07:41.540Z,28.6
2018-03-24T07:08:31.719Z,28.6
2018-03-24T07:09:21.239Z,28.6
2018-03-24T07:10:11.856Z,28.5
2018-03-24T07:11:01.872Z,28.4
2018-03-24T07:11:51.394Z,28.5
2018-03-24T07:12:41.492Z,28.4
2018-03-24T07:13:31.835Z,28.4
2018-03-24T07:14:21.272Z,28.4
2018-03-24T07:15:11.705Z,28.4
2018-03-24T07:16:01.976Z,28.3
2018-03-24T07:16:51.743Z,28.3
2018-03-24T07:17:42.108Z,28.3
2018-03-24T07:18:32.105Z,28.3
2018-03-24T07:19:22.178Z,28.3
2018-03-24T07:20:12.246Z,28.2
2018-03-24T07:21:02.540Z,28.2
2018-03-24T07:21:52.338Z,28.1
2018-03-24T07:22:42.132Z,28.1
2018-03-24T07:23:32.715Z,28.1
2018-03-24T07:24:22.488Z,28.1
2018-03-24T07:25:12.889Z,28
2018-03-24T07:26:02.970Z,28
2018-03-24T07:26:52.725Z,28
2018-03-24T07:27:43.117Z,28
2018-03-24T07:28:33.142Z,27.9
2018-03-24T07:29:22.330Z,27.9
2018-03-24T07:30:12.963Z,27.9
2018-03-24T07:31:02.502Z,27.9
2018-03-24T07:31:53.045Z,27.9
2018-03-24T07:35:13.016Z,27.8
2018-03-24T07:36:03.611Z,27.8
2018-03-24T07:36:52.971Z,27.8
2018-03-24T07:37:42.437Z,27.7
2018-03-24T07:38:33.041Z,27.6
2018-03-24T07:39:23.921Z,27.6
2018-03-24T07:40:13.862Z,27.6
2018-03-24T07:41:02.615Z,27.6
2018-03-24T07:41:52.913Z,27.6
2018-03-24T07:42:43.475Z,27.6
2018-03-24T07:43:33.832Z,27.6
2018-03-24T07:44:23.601Z,27.5
2018-03-24T07:45:14.019Z,27.5
2018-03-24T07:46:03.730Z,27.4
2018-03-24T07:46:54.159Z,27.4
2018-03-24T07:47:44.124Z,27.4
2018-03-24T07:48:33.663Z,27.3
2018-03-24T07:49:24.296Z,27.3
2018-03-24T07:50:14.062Z,27.3
2018-03-24T07:51:04.399Z,27.2
2018-03-24T07:51:54.413Z,27.2
2018-03-24T07:52:43.944Z,27.1
2018-03-24T07:53:34.767Z,27.1
2018-03-24T07:54:24.586Z,27.1
2018-03-24T07:55:14.609Z,27
2018-03-24T07:56:04.707Z,26.9
2018-03-24T07:56:54.444Z,26.9
2018-03-24T07:57:43.959Z,26.9
2018-03-24T07:58:34.256Z,26.9
2018-03-24T07:59:25.192Z,26.8
2018-03-24T08:00:14.946Z,26.8
2018-03-24T08:01:05.356Z,26.8
2018-03-24T08:01:55.063Z,26.8
2018-03-24T08:02:45.133Z,26.8
2018-03-24T08:03:35.188Z,26.7
2018-03-24T08:04:25.661Z,26.6
2018-03-24T08:05:15.126Z,26.6
2018-03-24T08:06:05.097Z,26.6
2018-03-24T08:06:55.153Z,26.6
2018-03-24T08:07:45.586Z,26.6
2018-03-24T08:08:35.031Z,26.6
2018-03-24T08:09:25.389Z,26.6
2018-03-24T08:10:14.910Z,26.5
2018-03-24T08:11:05.486Z,26.5
2018-03-24T08:11:55.818Z,26.4
2018-03-24T08:12:45.518Z,26.4
2018-03-24T08:13:35.604Z,26.3
2018-03-24T08:14:25.638Z,26.3
2018-03-24T08:15:16.240Z,26.3
2018-03-24T08:16:05.745Z,26.2
2018-03-24T08:16:54.479Z,26.2
2018-03-24T08:17:44.856Z,26.1
2018-03-24T08:18:35.288Z,26.1
2018-03-24T08:19:24.635Z,26.1
2018-03-24T08:20:14.706Z,26
2018-03-24T08:21:04.875Z,26
2018-03-24T08:21:55.624Z,25.9
2018-03-24T08:22:44.585Z,25.9
2018-03-24T08:23:35.222Z,25.9
2018-03-24T08:24:25.471Z,25.8
2018-03-24T08:25:15.545Z,25.8
2018-03-24T08:26:05.727Z,25.8
2018-03-24T08:26:55.702Z,25.7
2018-03-24T08:27:45.597Z,25.6
2018-03-24T08:28:35.967Z,25.6
2018-03-24T08:29:25.015Z,25.6
2018-03-24T08:30:15.195Z,25.6
2018-03-24T08:31:05.737Z,25.5
2018-03-24T08:31:55.460Z,25.5
2018-03-24T08:32:45.774Z,25.4
2018-03-24T08:33:36.304Z,25.4
2018-03-24T08:34:26.302Z,25.4
2018-03-24T08:35:15.817Z,25.4
2018-03-24T08:36:05.680Z,25.3
2018-03-24T08:36:55.545Z,25.3
2018-03-24T08:37:45.939Z,25.3
2018-03-24T08:38:35.164Z,25.2
2018-03-24T08:39:25.651Z,25.2
2018-03-24T08:40:15.699Z,25.2
2018-03-24T08:41:05.865Z,25.1
2018-03-24T08:41:56.249Z,25.1
2018-03-24T08:42:46.826Z,25.1
2018-03-24T08:43:37.184Z,25.1
2018-03-24T08:44:26.546Z,25
2018-03-24T08:45:16.515Z,25
2018-03-24T08:46:06.067Z,24.9
2018-03-24T08:46:56.319Z,24.9
2018-03-24T08:47:46.911Z,24.9
2018-03-24T08:48:36.148Z,24.9
2018-03-24T08:49:26.789Z,24.8
2018-03-24T08:50:17.254Z,24.8
2018-03-24T08:51:07.115Z,24.8
2018-03-24T08:51:57.328Z,24.8
2018-03-24T08:52:46.513Z,24.7
2018-03-24T08:53:38.116Z,24.7
2018-03-24T08:54:26.893Z,24.7
2018-03-24T08:55:17.186Z,24.6
2018-03-24T08:56:06.408Z,24.6
2018-03-24T08:56:57.776Z,24.6
2018-03-24T08:57:47.280Z,24.6
2018-03-24T08:58:37.591Z,24.6
2018-03-24T08:59:27.489Z,24.5
2018-03-24T09:00:16.931Z,24.4
2018-03-24T09:01:08.278Z,24.4
2018-03-24T09:01:57.518Z,24.3
2018-03-24T09:02:47.751Z,24.3
2018-03-24T09:03:37.725Z,24.3
2018-03-24T09:04:27.690Z,24.3
2018-03-24T09:05:17.530Z,24.3
2018-03-24T09:06:08.705Z,24.3
2018-03-24T09:06:58.530Z,24.2
2018-03-24T09:07:47.559Z,24.2
2018-03-24T09:08:38.451Z,24.2
2018-03-24T09:09:28.657Z,24.2
2018-03-24T09:10:18.372Z,24.1
2018-03-24T09:11:08.322Z,24.1
2018-03-24T09:11:58.190Z,24.1
2018-03-24T09:12:49.110Z,24.1
2018-03-24T09:13:38.787Z,23.9
2018-03-24T09:14:27.804Z,23.9
2018-03-24T09:15:19.513Z,23.8
2018-03-24T09:16:08.854Z,23.8
2018-03-24T09:16:59.272Z,23.6
2018-03-24T09:17:49.473Z,23.6
2018-03-24T09:18:40.298Z,23.6
2018-03-24T09:19:28.033Z,23.6
2018-03-24T09:20:20.159Z,23.6
2018-03-24T09:21:09.340Z,23.6
2018-03-24T09:21:58.615Z,23.6
2018-03-24T09:22:49.341Z,23.6
2018-03-24T09:23:38.605Z,23.6
2018-03-24T09:24:28.497Z,23.6
2018-03-24T09:25:18.479Z,23.6
2018-03-24T09:26:09.410Z,23.6
2018-03-24T09:26:59.719Z,23.6
2018-03-24T09:27:50.174Z,23.6
2018-03-24T09:28:39.877Z,23.6
2018-03-24T09:29:31.046Z,23.6
2018-03-24T09:30:20.812Z,23.6
2018-03-24T09:31:09.725Z,23.6
2018-03-24T09:31:59.064Z,23.6
2018-03-24T09:32:50.372Z,23.6
2018-03-24T09:33:38.313Z,23.5
2018-03-24T09:34:30.251Z,23.5
2018-03-24T09:35:20.617Z,23.5
2018-03-24T09:36:10.133Z,23.5
2018-03-24T09:36:59.616Z,23.5
2018-03-24T09:37:49.469Z,23.5
2018-03-24T09:38:40.892Z,23.5
2018-03-24T09:39:30.219Z,23.4
2018-03-24T09:40:20.412Z,23.4
2018-03-24T09:41:10.616Z,23.4
2018-03-24T09:41:59.964Z,23.4
2018-03-24T09:42:50.822Z,23.4
2018-03-24T09:43:40.566Z,23.4
2018-03-24T09:44:29.929Z,23.4
2018-03-24T09:45:20.584Z,23.4
2018-03-24T09:46:10.511Z,23.4
2018-03-24T09:47:00.488Z,23.4
2018-03-24T09:47:51.033Z,23.3
2018-03-24T09:48:39.885Z,23.4
2018-03-24T17:51:52.491Z,36.8
2018-03-24T17:52:42.923Z,36.8
2018-03-24T17:53:32.805Z,36.9
2018-03-24T17:54:22.571Z,36.9
2018-03-24T17:55:13.560Z,36.9
2018-03-24T17:56:02.368Z,37
2018-03-24T17:56:53.554Z,37.1
2018-03-24T17:57:43.033Z,37.1
2018-03-24T17:58:33.145Z,37.1
2018-03-24T17:59:23.569Z,37.1
2018-03-24T18:00:14.105Z,37.1
2018-03-24T18:01:03.190Z,37.1
2018-03-24T18:01:53.275Z,37.1
2018-03-24T18:02:43.220Z,37.2
2018-03-24T18:03:33.007Z,37.2
2018-03-24T18:04:23.977Z,37.3
2018-03-24T18:05:13.550Z,37.3
2018-03-24T18:06:03.814Z,37.3
2018-03-24T18:06:54.672Z,37.3
2018-03-24T18:07:44.410Z,37.3
2018-03-24T18:08:33.669Z,37.3
2018-03-24T18:09:24.887Z,37.4
2018-03-24T18:10:15.337Z,37.4
2018-03-24T18:11:04.742Z,37.4
2018-03-24T18:11:55.342Z,37.4
2018-03-24T18:12:45.396Z,37.4
2018-03-24T18:13:34.732Z,37.4
2018-03-24T18:14:24.774Z,37.4
2018-03-24T18:15:15.066Z,37.4
2018-03-24T18:16:05.640Z,37.4
2018-03-24T18:16:55.469Z,37.4
2018-03-24T18:17:45.501Z,37.3
2018-03-24T18:18:35.613Z,37.3
2018-03-24T18:19:25.908Z,37.1
2018-03-24T18:20:15.724Z,37.1
2018-03-24T18:21:05.206Z,37
2018-03-24T18:21:55.843Z,37
2018-03-24T18:22:46.129Z,37
2018-03-24T18:23:35.929Z,37
2018-03-24T18:24:25.773Z,37
2018-03-24T18:25:16.038Z,37
2018-03-24T18:26:05.885Z,37
2018-03-24T18:26:56.643Z,37
2018-03-24T18:27:46.472Z,37
2018-03-24T18:28:35.401Z,37
2018-03-24T18:29:24.755Z,37
2018-03-24T18:30:15.789Z,37.1
2018-03-24T18:31:06.432Z,37
2018-03-24T18:31:56.486Z,36.9
2018-03-24T18:32:46.532Z,36.9
2018-03-24T18:33:36.380Z,36.9
2018-03-24T18:34:26.679Z,37
2018-03-24T18:35:17.185Z,37
2018-03-24T18:36:05.464Z,37.1
2018-03-24T18:36:54.617Z,37.1
2018-03-24T18:37:45.430Z,37.1
2018-03-24T18:38:36.127Z,37.1
2018-03-24T18:39:26.637Z,37.1
2018-03-24T18:40:14.965Z,37.1
2018-03-24T18:41:05.784Z,37.1
2018-03-24T18:41:54.683Z,37.2
2018-03-24T18:42:45.872Z,37.2
2018-03-24T18:43:36.258Z,37.3
2018-03-24T18:44:27.663Z,37.4
2018-03-24T18:45:17.615Z,37.4
2018-03-24T18:46:07.651Z,37.6
2018-03-24T18:46:57.974Z,37.5
2018-03-24T18:47:47.810Z,37.6
2018-03-24T18:48:37.662Z,37.6
2018-03-24T18:49:27.434Z,37.6
2018-03-24T18:50:17.939Z,37.6
2018-03-24T18:51:08.512Z,37.4
2018-03-24T18:51:58.064Z,37.4
2018-03-24T18:52:48.438Z,37.4
2018-03-24T18:53:38.138Z,37.3
2018-03-24T18:54:28.082Z,37.3
2018-03-24T18:55:18.536Z,37.3
2018-03-24T18:56:08.866Z,37.3
2018-03-24T18:56:58.939Z,37.2
2018-03-24T18:57:48.967Z,37.2
2018-03-24T18:58:38.560Z,37.2
2018-03-24T18:59:28.539Z,37.1
2018-03-24T19:00:18.945Z,37.1
2018-03-24T19:01:08.722Z,37.1
2018-03-24T19:01:58.715Z,37.1
2018-03-24T19:02:48.763Z,37
2018-03-24T19:03:38.548Z,37
2018-03-24T19:04:29.491Z,36.9
2018-03-24T19:05:19.476Z,36.9
2018-03-24T19:06:09.574Z,37
2018-03-24T19:06:59.580Z,37
2018-03-24T19:07:49.454Z,37.1
2018-03-24T19:08:39.160Z,37.1
2018-03-24T19:09:29.190Z,37.2
2018-03-24T19:10:19.532Z,37.3
2018-03-24T19:11:09.642Z,37.3
2018-03-24T19:11:59.997Z,37.3
2018-03-24T19:12:49.745Z,37.3
2018-03-24T19:13:39.666Z,37.4
2018-03-24T19:14:29.905Z,37.4